Austin Reinauer — WCX8055 — position and weather

sailwx.info

Track history (hours):
 
Tides and Currents Weather Stations Pressure Air Temp Water Temp Dewpoint Dewpoint Depression Visibility Wind Speed Wind Dir Waves Ship Positions

Austin Reinauer

Owner: REINAUER TRANSPORTATION CO, LP, STATEN ISLAND, NY. More information available from US FCC via Universal Licensing System and Coast Guard Vessel Documentation Center.

Last reported at 2014-Oct-31 18:26 UTC. Time now 2014-Oct-31 18:39 UTC.
Position N 40°38' W 074°08'.

Length 33 m; draft 6.7 m.

Type: Ship (hazmat cat B). MMSI: 366739920.

Date/timePositionNaut miles runAvg speedWind from/ knotsBaromVisibWave heightAir tempDewpointWater temp
2014-Oct-31 18:26N 40°38' W 074°08'0 0.0
2014-Oct-31 17:14N 40°38' W 074°08'0 0.0
2014-Oct-31 16:32N 40°38' W 074°08'0 0.0
2014-Oct-31 15:31N 40°38' W 074°08'0 0.0
2014-Oct-31 14:31N 40°38' W 074°08'0 0.0
2014-Oct-31 13:31N 40°38' W 074°08'0 0.0
2014-Oct-31 12:31N 40°38' W 074°08'0 0.0
2014-Oct-31 11:31N 40°38' W 074°08'0 0.0
2014-Oct-31 10:28N 40°38' W 074°08'1 1.1
2014-Oct-31 09:31N 40°39' W 074°07'0 0.0
2014-Oct-31 08:31N 40°39' W 074°07'0 0.0
2014-Oct-31 07:34N 40°39' W 074°07'0 0.1
2014-Oct-31 06:33N 40°39' W 074°07'3 2.7
2014-Oct-31 05:33N 40°40' W 074°03'1 0.6
2014-Oct-31 04:32N 40°40' W 074°02'0 0.0
2014-Oct-31 03:32N 40°40' W 074°02'0 0.0
2014-Oct-31 02:32N 40°40' W 074°03'0 0.0
2014-Oct-31 01:32N 40°40' W 074°03'0 0.0
2014-Oct-31 00:32N 40°40' W 074°03'2 2.3
2014-Oct-30 23:33N 40°37' W 074°03'6 6.4
2014-Oct-30 22:33N 40°31' W 074°00'9 8.1
2014-Oct-30 21:23N 40°29' W 073°48'10 9.5
2014-Oct-30 20:17N 40°30' W 073°34'7 9.7
2014-Oct-30 19:33N 40°31' W 073°25'10 9.7
2014-Oct-30 18:31N 40°34' W 073°13'10 9.8
2014-Oct-30 17:33N 40°37' W 073°01'10 9.9
2014-Oct-30 16:33N 40°41' W 072°49'1010.0
2014-Oct-30 15:34N 40°45' W 072°37'1010.1
2014-Oct-30 14:33N 40°48' W 072°24'4210.2
2014-Oct-30 10:25N 41°06' W 071°33'9 9.9
2014-Oct-30 09:34N 41°10' W 071°23'10 9.9
2014-Oct-30 08:33N 41°17' W 071°14'10 9.8
2014-Oct-30 07:33N 41°24' W 071°05'1010.0
2014-Oct-30 06:32N 41°29' W 070°53'10 9.8
2014-Oct-30 05:33N 41°35' W 070°43'40 1.4
2014-Oct-29 01:33N 42°15' W 070°39'11 9.7
2014-Oct-29 00:22N 42°04' W 070°32'8 9.9
2014-Oct-28 23:33N 41°57' W 070°30'10 9.7
2014-Oct-28 22:33N 41°47' W 070°29'6 6.1
2014-Oct-28 21:33N 41°45' W 070°36'7 6.7
2014-Oct-28 20:33N 41°39' W 070°41'9 8.7
2014-Oct-28 19:33N 41°32' W 070°48'9 8.9
2014-Oct-28 18:33N 41°28' W 070°58'9 9.0
2014-Oct-28 17:33N 41°25' W 071°10'9 9.4
2014-Oct-28 16:33N 41°26' W 071°22'9 9.1
2014-Oct-28 15:33N 41°35' W 071°19'9 8.5
2014-Oct-28 14:33N 41°43' W 071°21'4 4.1
2014-Oct-28 13:33N 41°47' W 071°22'0 0.0
2014-Oct-28 12:33N 41°47' W 071°22'0 0.0
2014-Oct-28 11:33N 41°47' W 071°22'0 0.0
2014-Oct-28 10:33N 41°47' W 071°22'0 0.0
2014-Oct-28 09:33N 41°47' W 071°22'0 0.0
2014-Oct-28 08:33N 41°47' W 071°22'0 0.0
2014-Oct-28 07:33N 41°47' W 071°22'0 0.0
2014-Oct-28 06:33N 41°47' W 071°22'0 0.0
2014-Oct-28 05:33N 41°47' W 071°22'0 0.0
2014-Oct-28 04:33N 41°47' W 071°22'0 0.0
2014-Oct-28 03:33N 41°47' W 071°22'0 0.0
2014-Oct-28 02:33N 41°47' W 071°22'0 0.0
2014-Oct-28 01:33N 41°47' W 071°22'0 0.0
2014-Oct-28 00:33N 41°47' W 071°22'0 0.0
2014-Oct-27 23:33N 41°47' W 071°22'0 0.0
2014-Oct-27 22:33N 41°47' W 071°22'6 5.7
2014-Oct-27 21:33N 41°42' W 071°19'8 7.9
2014-Oct-27 20:33N 41°34' W 071°19'8 7.8
2014-Oct-27 19:33N 41°27' W 071°23'8 8.3
2014-Oct-27 18:33N 41°19' W 071°27'8 8.0
2014-Oct-27 17:33N 41°18' W 071°38'8 8.1
2014-Oct-27 16:33N 41°16' W 071°48'7 7.3
2014-Oct-27 15:33N 41°14' W 071°58'7 6.7
2014-Oct-27 14:33N 41°14' W 072°07'8 7.6
2014-Oct-27 13:33N 41°12' W 072°17'8 8.1
2014-Oct-27 12:33N 41°09' W 072°26'9 8.7
2014-Oct-27 11:33N 41°07' W 072°38'9 9.1
2014-Oct-27 10:33N 41°05' W 072°49'11 9.1
2014-Oct-27 09:20N 41°02' W 073°04'7 9.2
2014-Oct-27 08:33N 41°01' W 073°13'10 8.8
2014-Oct-27 07:28N 40°60' W 073°26'23 7.9
2014-Oct-27 04:33N 40°48' W 073°52'8 7.6
2014-Oct-27 03:33N 40°43' W 073°59'6 5.9
2014-Oct-27 02:33N 40°39' W 074°05'0 0.0
2014-Oct-27 01:33N 40°39' W 074°05'0 0.0
2014-Oct-27 00:33N 40°39' W 074°05'0 0.0
2014-Oct-26 23:33N 40°39' W 074°05'1 0.7
2014-Oct-26 22:33N 40°39' W 074°06'1 0.7
2014-Oct-26 21:33N 40°39' W 074°05'0 0.0
2014-Oct-26 20:33N 40°39' W 074°05'0 0.0
2014-Oct-26 19:33N 40°39' W 074°05'0 0.0
2014-Oct-26 18:33N 40°39' W 074°05'0 0.0
2014-Oct-26 17:33N 40°39' W 074°05'0 0.0
2014-Oct-26 16:33N 40°39' W 074°05'0 0.0
2014-Oct-26 15:33N 40°39' W 074°05'0 0.0
2014-Oct-26 14:33N 40°39' W 074°05'0 0.0
2014-Oct-26 13:33N 40°39' W 074°05'0 0.0
2014-Oct-26 12:33N 40°39' W 074°05'0 0.0
2014-Oct-26 11:33N 40°39' W 074°05'0 0.0
2014-Oct-26 10:33N 40°39' W 074°05'0 0.0
2014-Oct-26 09:33N 40°39' W 074°05'0 0.0
2014-Oct-26 08:33N 40°39' W 074°05'0 0.0
2014-Oct-26 07:33N 40°39' W 074°05'0 0.0
2014-Oct-26 06:33N 40°39' W 074°05'0 0.0
2014-Oct-26 05:33N 40°39' W 074°05'0 0.0
2014-Oct-26 04:33N 40°39' W 074°05'0 0.0
2014-Oct-26 03:33N 40°39' W 074°05'0 0.0
2014-Oct-26 02:33N 40°39' W 074°05'0 0.0
2014-Oct-26 01:33N 40°39' W 074°05'3 2.8
2014-Oct-26 00:33N 40°41' W 074°02'7 6.3
2014-Oct-25 23:25N 40°46' W 073°57'6 6.6
2014-Oct-25 22:33N 40°48' W 073°49'8 8.3
2014-Oct-25 21:33N 40°54' W 073°41'9 9.2
2014-Oct-25 20:33N 40°58' W 073°30'8 7.9
2014-Oct-25 19:33N 41°01' W 073°21'8 7.5
2014-Oct-25 18:33N 41°04' W 073°12'8 8.3
2014-Oct-25 17:33N 41°08' W 073°02'9 8.6
2014-Oct-25 16:33N 41°15' W 072°55'3 2.5
2014-Oct-25 15:21N 41°18' W 072°54'0 0.0
2014-Oct-25 14:32N 41°18' W 072°54'0 0.0
2014-Oct-25 13:32N 41°18' W 072°54'0 0.0
2014-Oct-25 12:33N 41°18' W 072°54'0 0.0
2014-Oct-25 11:33N 41°18' W 072°54'0 0.0
2014-Oct-25 10:33N 41°18' W 072°54'0 0.0
2014-Oct-25 09:33N 41°18' W 072°54'0 0.0
2014-Oct-25 08:33N 41°18' W 072°54'0 0.0
2014-Oct-25 07:33N 41°18' W 072°54'0 0.0
2014-Oct-25 06:33N 41°18' W 072°54'0 0.0
2014-Oct-25 05:17N 41°18' W 072°54'0 0.3
2014-Oct-25 04:33N 41°18' W 072°55'0 0.0
2014-Oct-25 03:33N 41°18' W 072°55'0 0.0
2014-Oct-25 02:33N 41°18' W 072°55'0 0.0
2014-Oct-25 01:33N 41°18' W 072°55'0 0.0
2014-Oct-25 00:33N 41°18' W 072°55'0 0.0
2014-Oct-24 23:33N 41°18' W 072°55'0 0.0
2014-Oct-24 22:33N 41°18' W 072°55'0 0.0
2014-Oct-24 21:32N 41°18' W 072°55'0 0.0
2014-Oct-24 20:33N 41°18' W 072°55'0 0.0
2014-Oct-24 19:33N 41°18' W 072°55'0 0.0
2014-Oct-24 18:32N 41°18' W 072°55'0 0.0
2014-Oct-24 17:33N 41°18' W 072°55'0 0.0
2014-Oct-24 16:34N 41°18' W 072°55'0 0.1
2014-Oct-24 15:33N 41°18' W 072°55'7 6.6
2014-Oct-24 14:33N 41°11' W 072°56'8 7.8
2014-Oct-24 13:32N 41°07' W 073°05'7 7.6
2014-Oct-24 12:33N 41°03' W 073°14'8 8.2
2014-Oct-24 11:33N 41°01' W 073°24'19 8.3
2014-Oct-24 09:15N 40°51' W 073°46'5 6.9
2014-Oct-24 08:32N 40°48' W 073°51'5 5.7
2014-Oct-24 07:33N 40°45' W 073°58'5 5.3
2014-Oct-24 06:33N 40°41' W 074°01'3 3.3
2014-Oct-24 05:33N 40°39' W 074°05'0 0.0
2014-Oct-24 04:33N 40°39' W 074°05'0 0.0
2014-Oct-24 03:33N 40°39' W 074°05'0 0.0
2014-Oct-24 02:33N 40°39' W 074°05'0 0.0
2014-Oct-24 01:33N 40°39' W 074°05'0 0.0
2014-Oct-24 00:33N 40°39' W 074°05'0 0.0
2014-Oct-23 23:33N 40°39' W 074°05'0 0.0
2014-Oct-23 22:33N 40°39' W 074°05'0 0.0
2014-Oct-23 21:33N 40°39' W 074°05'0 0.0
2014-Oct-23 20:33N 40°39' W 074°05'0 0.0
2014-Oct-23 19:33N 40°39' W 074°05'0 0.0
2014-Oct-23 18:33N 40°39' W 074°05'0 0.0
2014-Oct-23 17:33N 40°39' W 074°05'2 1.9
2014-Oct-23 16:33N 40°39' W 074°08'0 0.2
2014-Oct-23 15:30N 40°38' W 074°08'0 0.0
2014-Oct-23 14:16N 40°38' W 074°08'0 0.0
2014-Oct-23 13:25N 40°38' W 074°08'0 0.0
2014-Oct-23 12:33N 40°38' W 074°08'2 2.1
2014-Oct-23 11:33N 40°39' W 074°05'0 0.0
2014-Oct-23 10:33N 40°39' W 074°05'0 0.0
2014-Oct-23 09:33N 40°39' W 074°05'0 0.0
2014-Oct-23 08:33N 40°39' W 074°05'0 0.0
2014-Oct-23 07:33N 40°39' W 074°05'0 0.0
2014-Oct-23 06:33N 40°39' W 074°05'0 0.0
2014-Oct-23 05:33N 40°39' W 074°05'0 0.0
2014-Oct-23 04:33N 40°39' W 074°05'0 0.0
2014-Oct-23 03:33N 40°39' W 074°05'0 0.0
2014-Oct-23 02:33N 40°39' W 074°05'0 0.0
2014-Oct-23 01:33N 40°39' W 074°05'0 0.1
2014-Oct-23 00:33N 40°39' W 074°05'2 1.5
2014-Oct-22 23:34N 40°39' W 074°03'0 0.5
2014-Oct-22 22:33N 40°40' W 074°03'0 0.0
2014-Oct-22 21:33N 40°40' W 074°03'4 4.1
2014-Oct-22 20:33N 40°43' W 073°59'8 6.1
2014-Oct-22 19:14N 40°48' W 073°51'6 8.3
2014-Oct-22 18:31N 40°52' W 073°45'9 9.5
2014-Oct-22 17:33N 40°56' W 073°35'10 9.9
2014-Oct-22 16:33N 41°01' W 073°23'10 9.9
2014-Oct-22 15:33N 41°04' W 073°11'1010.1
2014-Oct-22 14:33N 41°10' W 072°59'9 8.6
2014-Oct-22 13:34N 41°17' W 072°55'0 0.2
2014-Oct-22 12:11N 41°18' W 072°54'0 0.0
2014-Oct-22 10:18N 41°18' W 072°54'0 0.0
2014-Oct-22 09:17N 41°18' W 072°54'0 0.0
2014-Oct-22 07:14N 41°18' W 072°54'0 0.0
2014-Oct-22 06:25N 41°18' W 072°54'0 0.0
2014-Oct-22 04:30N 41°18' W 072°54'0 0.0
2014-Oct-22 03:24N 41°18' W 072°54'0 0.3
2014-Oct-22 02:33N 41°18' W 072°55'0 0.0
2014-Oct-22 01:33N 41°18' W 072°55'0 0.0
2014-Oct-22 00:33N 41°18' W 072°55'0 0.0
2014-Oct-21 23:33N 41°18' W 072°55'0 0.0
2014-Oct-21 22:33N 41°18' W 072°55'0 0.0
2014-Oct-21 21:34N 41°18' W 072°55'0 0.0
2014-Oct-21 20:32N 41°18' W 072°55'0 0.0
2014-Oct-21 19:33N 41°18' W 072°55'0 0.0
2014-Oct-21 18:33N 41°18' W 072°55'  
Track history (hours):
 
Tides and Currents Weather Stations Pressure Air Temp Water Temp Dewpoint Dewpoint Depression Visibility Wind Speed Wind Dir Waves Ship Positions

Austin Reinauer

Owner: REINAUER TRANSPORTATION CO, LP, STATEN ISLAND, NY. More information available from US FCC via Universal Licensing System and Coast Guard Vessel Documentation Center.

Last reported at 2014-Oct-31 18:26 UTC. Time now 2014-Oct-31 18:39 UTC.
Position N 40°38' W 074°08'.

Length 33 m; draft 6.7 m.

Type: Ship (hazmat cat B). MMSI: 366739920.

Date/timePositionNaut miles runAvg speedWind from/ knotsBaromVisibWave heightAir tempDewpointWater temp
2014-Oct-31 18:26N 40°38' W 074°08'0 0.0
2014-Oct-31 17:14N 40°38' W 074°08'0 0.0
2014-Oct-31 16:32N 40°38' W 074°08'0 0.0
2014-Oct-31 15:31N 40°38' W 074°08'0 0.0
2014-Oct-31 14:31N 40°38' W 074°08'0 0.0
2014-Oct-31 13:31N 40°38' W 074°08'0 0.0
2014-Oct-31 12:31N 40°38' W 074°08'0 0.0
2014-Oct-31 11:31N 40°38' W 074°08'0 0.0
2014-Oct-31 10:28N 40°38' W 074°08'1 1.1
2014-Oct-31 09:31N 40°39' W 074°07'0 0.0
2014-Oct-31 08:31N 40°39' W 074°07'0 0.0
2014-Oct-31 07:34N 40°39' W 074°07'0 0.1
2014-Oct-31 06:33N 40°39' W 074°07'3 2.7
2014-Oct-31 05:33N 40°40' W 074°03'1 0.6
2014-Oct-31 04:32N 40°40' W 074°02'0 0.0
2014-Oct-31 03:32N 40°40' W 074°02'0 0.0
2014-Oct-31 02:32N 40°40' W 074°03'0 0.0
2014-Oct-31 01:32N 40°40' W 074°03'0 0.0
2014-Oct-31 00:32N 40°40' W 074°03'2 2.3
2014-Oct-30 23:33N 40°37' W 074°03'6 6.4
2014-Oct-30 22:33N 40°31' W 074°00'9 8.1
2014-Oct-30 21:23N 40°29' W 073°48'10 9.5
2014-Oct-30 20:17N 40°30' W 073°34'7 9.7
2014-Oct-30 19:33N 40°31' W 073°25'10 9.7
2014-Oct-30 18:31N 40°34' W 073°13'10 9.8
2014-Oct-30 17:33N 40°37' W 073°01'10 9.9
2014-Oct-30 16:33N 40°41' W 072°49'1010.0
2014-Oct-30 15:34N 40°45' W 072°37'1010.1
2014-Oct-30 14:33N 40°48' W 072°24'4210.2
2014-Oct-30 10:25N 41°06' W 071°33'9 9.9
2014-Oct-30 09:34N 41°10' W 071°23'10 9.9
2014-Oct-30 08:33N 41°17' W 071°14'10 9.8
2014-Oct-30 07:33N 41°24' W 071°05'1010.0
2014-Oct-30 06:32N 41°29' W 070°53'10 9.8
2014-Oct-30 05:33N 41°35' W 070°43'40 1.4
2014-Oct-29 01:33N 42°15' W 070°39'11 9.7
2014-Oct-29 00:22N 42°04' W 070°32'8 9.9
2014-Oct-28 23:33N 41°57' W 070°30'10 9.7
2014-Oct-28 22:33N 41°47' W 070°29'6 6.1
2014-Oct-28 21:33N 41°45' W 070°36'7 6.7
2014-Oct-28 20:33N 41°39' W 070°41'9 8.7
2014-Oct-28 19:33N 41°32' W 070°48'9 8.9
2014-Oct-28 18:33N 41°28' W 070°58'9 9.0
2014-Oct-28 17:33N 41°25' W 071°10'9 9.4
2014-Oct-28 16:33N 41°26' W 071°22'9 9.1
2014-Oct-28 15:33N 41°35' W 071°19'9 8.5
2014-Oct-28 14:33N 41°43' W 071°21'4 4.1
2014-Oct-28 13:33N 41°47' W 071°22'0 0.0
2014-Oct-28 12:33N 41°47' W 071°22'0 0.0
2014-Oct-28 11:33N 41°47' W 071°22'0 0.0
2014-Oct-28 10:33N 41°47' W 071°22'0 0.0
2014-Oct-28 09:33N 41°47' W 071°22'0 0.0
2014-Oct-28 08:33N 41°47' W 071°22'0 0.0
2014-Oct-28 07:33N 41°47' W 071°22'0 0.0
2014-Oct-28 06:33N 41°47' W 071°22'0 0.0
2014-Oct-28 05:33N 41°47' W 071°22'0 0.0
2014-Oct-28 04:33N 41°47' W 071°22'0 0.0
2014-Oct-28 03:33N 41°47' W 071°22'0 0.0
2014-Oct-28 02:33N 41°47' W 071°22'0 0.0
2014-Oct-28 01:33N 41°47' W 071°22'0 0.0
2014-Oct-28 00:33N 41°47' W 071°22'0 0.0
2014-Oct-27 23:33N 41°47' W 071°22'0 0.0
2014-Oct-27 22:33N 41°47' W 071°22'6 5.7
2014-Oct-27 21:33N 41°42' W 071°19'8 7.9
2014-Oct-27 20:33N 41°34' W 071°19'8 7.8
2014-Oct-27 19:33N 41°27' W 071°23'8 8.3
2014-Oct-27 18:33N 41°19' W 071°27'8 8.0
2014-Oct-27 17:33N 41°18' W 071°38'8 8.1
2014-Oct-27 16:33N 41°16' W 071°48'7 7.3
2014-Oct-27 15:33N 41°14' W 071°58'7 6.7
2014-Oct-27 14:33N 41°14' W 072°07'8 7.6
2014-Oct-27 13:33N 41°12' W 072°17'8 8.1
2014-Oct-27 12:33N 41°09' W 072°26'9 8.7
2014-Oct-27 11:33N 41°07' W 072°38'9 9.1
2014-Oct-27 10:33N 41°05' W 072°49'11 9.1
2014-Oct-27 09:20N 41°02' W 073°04'7 9.2
2014-Oct-27 08:33N 41°01' W 073°13'10 8.8
2014-Oct-27 07:28N 40°60' W 073°26'23 7.9
2014-Oct-27 04:33N 40°48' W 073°52'8 7.6
2014-Oct-27 03:33N 40°43' W 073°59'6 5.9
2014-Oct-27 02:33N 40°39' W 074°05'0 0.0
2014-Oct-27 01:33N 40°39' W 074°05'0 0.0
2014-Oct-27 00:33N 40°39' W 074°05'0 0.0
2014-Oct-26 23:33N 40°39' W 074°05'1 0.7
2014-Oct-26 22:33N 40°39' W 074°06'1 0.7
2014-Oct-26 21:33N 40°39' W 074°05'0 0.0
2014-Oct-26 20:33N 40°39' W 074°05'0 0.0
2014-Oct-26 19:33N 40°39' W 074°05'0 0.0
2014-Oct-26 18:33N 40°39' W 074°05'0 0.0
2014-Oct-26 17:33N 40°39' W 074°05'0 0.0
2014-Oct-26 16:33N 40°39' W 074°05'0 0.0
2014-Oct-26 15:33N 40°39' W 074°05'0 0.0
2014-Oct-26 14:33N 40°39' W 074°05'0 0.0
2014-Oct-26 13:33N 40°39' W 074°05'0 0.0
2014-Oct-26 12:33N 40°39' W 074°05'0 0.0
2014-Oct-26 11:33N 40°39' W 074°05'0 0.0
2014-Oct-26 10:33N 40°39' W 074°05'0 0.0
2014-Oct-26 09:33N 40°39' W 074°05'0 0.0
2014-Oct-26 08:33N 40°39' W 074°05'0 0.0
2014-Oct-26 07:33N 40°39' W 074°05'0 0.0
2014-Oct-26 06:33N 40°39' W 074°05'0 0.0
2014-Oct-26 05:33N 40°39' W 074°05'0 0.0
2014-Oct-26 04:33N 40°39' W 074°05'0 0.0
2014-Oct-26 03:33N 40°39' W 074°05'0 0.0
2014-Oct-26 02:33N 40°39' W 074°05'0 0.0
2014-Oct-26 01:33N 40°39' W 074°05'3 2.8
2014-Oct-26 00:33N 40°41' W 074°02'7 6.3
2014-Oct-25 23:25N 40°46' W 073°57'6 6.6
2014-Oct-25 22:33N 40°48' W 073°49'8 8.3
2014-Oct-25 21:33N 40°54' W 073°41'9 9.2
2014-Oct-25 20:33N 40°58' W 073°30'8 7.9
2014-Oct-25 19:33N 41°01' W 073°21'8 7.5
2014-Oct-25 18:33N 41°04' W 073°12'8 8.3
2014-Oct-25 17:33N 41°08' W 073°02'9 8.6
2014-Oct-25 16:33N 41°15' W 072°55'3 2.5
2014-Oct-25 15:21N 41°18' W 072°54'0 0.0
2014-Oct-25 14:32N 41°18' W 072°54'0 0.0
2014-Oct-25 13:32N 41°18' W 072°54'0 0.0
2014-Oct-25 12:33N 41°18' W 072°54'0 0.0
2014-Oct-25 11:33N 41°18' W 072°54'0 0.0
2014-Oct-25 10:33N 41°18' W 072°54'0 0.0
2014-Oct-25 09:33N 41°18' W 072°54'0 0.0
2014-Oct-25 08:33N 41°18' W 072°54'0 0.0
2014-Oct-25 07:33N 41°18' W 072°54'0 0.0
2014-Oct-25 06:33N 41°18' W 072°54'0 0.0
2014-Oct-25 05:17N 41°18' W 072°54'0 0.3
2014-Oct-25 04:33N 41°18' W 072°55'0 0.0
2014-Oct-25 03:33N 41°18' W 072°55'0 0.0
2014-Oct-25 02:33N 41°18' W 072°55'0 0.0
2014-Oct-25 01:33N 41°18' W 072°55'0 0.0
2014-Oct-25 00:33N 41°18' W 072°55'0 0.0
2014-Oct-24 23:33N 41°18' W 072°55'0 0.0
2014-Oct-24 22:33N 41°18' W 072°55'0 0.0
2014-Oct-24 21:32N 41°18' W 072°55'0 0.0
2014-Oct-24 20:33N 41°18' W 072°55'0 0.0
2014-Oct-24 19:33N 41°18' W 072°55'0 0.0
2014-Oct-24 18:32N 41°18' W 072°55'0 0.0
2014-Oct-24 17:33N 41°18' W 072°55'0 0.0
2014-Oct-24 16:34N 41°18' W 072°55'0 0.1
2014-Oct-24 15:33N 41°18' W 072°55'7 6.6
2014-Oct-24 14:33N 41°11' W 072°56'8 7.8
2014-Oct-24 13:32N 41°07' W 073°05'7 7.6
2014-Oct-24 12:33N 41°03' W 073°14'8 8.2
2014-Oct-24 11:33N 41°01' W 073°24'19 8.3
2014-Oct-24 09:15N 40°51' W 073°46'5 6.9
2014-Oct-24 08:32N 40°48' W 073°51'5 5.7
2014-Oct-24 07:33N 40°45' W 073°58'5 5.3
2014-Oct-24 06:33N 40°41' W 074°01'3 3.3
2014-Oct-24 05:33N 40°39' W 074°05'0 0.0
2014-Oct-24 04:33N 40°39' W 074°05'0 0.0
2014-Oct-24 03:33N 40°39' W 074°05'0 0.0
2014-Oct-24 02:33N 40°39' W 074°05'0 0.0
2014-Oct-24 01:33N 40°39' W 074°05'0 0.0
2014-Oct-24 00:33N 40°39' W 074°05'0 0.0
2014-Oct-23 23:33N 40°39' W 074°05'0 0.0
2014-Oct-23 22:33N 40°39' W 074°05'0 0.0
2014-Oct-23 21:33N 40°39' W 074°05'0 0.0
2014-Oct-23 20:33N 40°39' W 074°05'0 0.0
2014-Oct-23 19:33N 40°39' W 074°05'0 0.0
2014-Oct-23 18:33N 40°39' W 074°05'0 0.0
2014-Oct-23 17:33N 40°39' W 074°05'2 1.9
2014-Oct-23 16:33N 40°39' W 074°08'0 0.2
2014-Oct-23 15:30N 40°38' W 074°08'0 0.0
2014-Oct-23 14:16N 40°38' W 074°08'0 0.0
2014-Oct-23 13:25N 40°38' W 074°08'0 0.0
2014-Oct-23 12:33N 40°38' W 074°08'2 2.1
2014-Oct-23 11:33N 40°39' W 074°05'0 0.0
2014-Oct-23 10:33N 40°39' W 074°05'0 0.0
2014-Oct-23 09:33N 40°39' W 074°05'0 0.0
2014-Oct-23 08:33N 40°39' W 074°05'0 0.0
2014-Oct-23 07:33N 40°39' W 074°05'0 0.0
2014-Oct-23 06:33N 40°39' W 074°05'0 0.0
2014-Oct-23 05:33N 40°39' W 074°05'0 0.0
2014-Oct-23 04:33N 40°39' W 074°05'0 0.0
2014-Oct-23 03:33N 40°39' W 074°05'0 0.0
2014-Oct-23 02:33N 40°39' W 074°05'0 0.0
2014-Oct-23 01:33N 40°39' W 074°05'0 0.1
2014-Oct-23 00:33N 40°39' W 074°05'2 1.5
2014-Oct-22 23:34N 40°39' W 074°03'0 0.5
2014-Oct-22 22:33N 40°40' W 074°03'0 0.0
2014-Oct-22 21:33N 40°40' W 074°03'4 4.1
2014-Oct-22 20:33N 40°43' W 073°59'8 6.1
2014-Oct-22 19:14N 40°48' W 073°51'6 8.3
2014-Oct-22 18:31N 40°52' W 073°45'9 9.5
2014-Oct-22 17:33N 40°56' W 073°35'10 9.9
2014-Oct-22 16:33N 41°01' W 073°23'10 9.9
2014-Oct-22 15:33N 41°04' W 073°11'1010.1
2014-Oct-22 14:33N 41°10' W 072°59'9 8.6
2014-Oct-22 13:34N 41°17' W 072°55'0 0.2
2014-Oct-22 12:11N 41°18' W 072°54'0 0.0
2014-Oct-22 10:18N 41°18' W 072°54'0 0.0
2014-Oct-22 09:17N 41°18' W 072°54'0 0.0
2014-Oct-22 07:14N 41°18' W 072°54'0 0.0
2014-Oct-22 06:25N 41°18' W 072°54'0 0.0
2014-Oct-22 04:30N 41°18' W 072°54'0 0.0
2014-Oct-22 03:24N 41°18' W 072°54'0 0.3
2014-Oct-22 02:33N 41°18' W 072°55'0 0.0
2014-Oct-22 01:33N 41°18' W 072°55'0 0.0
2014-Oct-22 00:33N 41°18' W 072°55'0 0.0
2014-Oct-21 23:33N 41°18' W 072°55'0 0.0
2014-Oct-21 22:33N 41°18' W 072°55'0 0.0
2014-Oct-21 21:34N 41°18' W 072°55'0 0.0
2014-Oct-21 20:32N 41°18' W 072°55'0 0.0
2014-Oct-21 19:33N 41°18' W 072°55'0 0.0
2014-Oct-21 18:33N 41°18' W 072°55'  

Dump ship's entire track history